Terminal Aerodrome Forecast
Issued by NWS

Home | Current Version | Previous Version | Text Only | Print | Product List | Glossary Off
Versions: 1 2 3 4 5 6 7 8 9 10 11 12 13 14 15 16 17

000
FTUS42 KMHX 262340
TAFISO
TAF
KISO 262340Z 2700/2724 34005KT P6SM SCT020 SCT120
      TEMPO 2700/2701 BKN024
     FM270700 00000KT 5SM BR FEW004 FEW020
      TEMPO 2709/2712 2SM BR SCT002
     FM271300 33006KT P6SM SCT060
      AMD LTD TO CLD VIS AND WIND=

USA.gov is the U.S. government's official web portal to all federal, state and local government web resources and services.